Time;durP1;ratioP1;P1;durP2;ratioP2;P2;SDS_P1;SDS_P2;PMS_P1;PMS_P2;Temp;Humidity;BMP_temperature;BMP_pressure;BME280_temperature;BME280_humidity;BME280_pressure;Samples;Min_cycle;Max_cycle;Signal;HPM_P1;HPM_P2
2023/04/26 00:01:38;;;;;;;;;;;;;;;19.20;58.29;100692.06;2226952;78;51348;-75
2023/04/26 00:04:39;;;;;;;;;;;;;;;19.20;58.31;100691.55;2244107;78;51445;-74
2023/04/26 00:07:42;;;;;;;;;;;;;;;19.20;58.32;100694.23;2233977;78;51729;-74
2023/04/26 00:10:44;;;;;;;;;;;;;;;19.21;58.29;100693.71;2237932;79;51594;-74
2023/04/26 00:13:45;;;;;;;;;;;;;;;19.21;58.25;100693.20;2242054;78;51388;-74
2023/04/26 00:16:47;;;;;;;;;;;;;;;19.21;58.16;100690.52;2202467;80;51414;-75
2023/04/26 00:19:49;;;;;;;;;;;;;;;19.21;58.12;100693.20;2185649;78;53173;-74
2023/04/26 00:22:52;;;;;;;;;;;;;;;19.20;58.12;100689.38;2254350;78;50367;-76
2023/04/26 00:25:53;;;;;;;;;;;;;;;19.18;58.13;100689.55;2252761;79;51589;-74
2023/04/26 00:28:55;;;;;;;;;;;;;;;19.18;58.14;100686.86;2253110;79;51514;-75
2023/04/26 00:31:56;;;;;;;;;;;;;;;19.18;58.10;100700.28;2231137;78;52538;-74
2023/04/26 00:34:58;;;;;;;;;;;;;;;19.18;58.05;100696.25;2269819;78;51583;-75
2023/04/26 00:38:00;;;;;;;;;;;;;;;19.17;58.09;100689.23;2246644;78;51512;-74
2023/04/26 00:41:02;;;;;;;;;;;;;;;19.15;58.01;100700.14;2202197;80;51465;-75
2023/04/26 00:44:03;;;;;;;;;;;;;;;19.16;57.99;100694.26;2180392;80;52403;-75
2023/04/26 00:47:05;;;;;;;;;;;;;;;19.15;57.96;100692.61;2202371;80;51507;-75
2023/04/26 00:50:07;;;;;;;;;;;;;;;19.17;57.91;100689.75;2222694;79;50724;-74
2023/04/26 00:53:08;;;;;;;;;;;;;;;19.16;57.92;100691.58;2218175;78;50117;-74
2023/04/26 00:56:10;;;;;;;;;;;;;;;19.17;57.99;100686.55;2235190;78;51145;-74
2023/04/26 00:59:12;;;;;;;;;;;;;;;19.15;57.95;100693.95;2258977;78;50333;-74
2023/04/26 01:02:13;;;;;;;;;;;;;;;19.15;57.94;100693.44;2254915;78;50220;-74
2023/04/26 01:05:15;;;;;;;;;;;;;;;19.15;57.80;100696.63;2242904;79;50190;-74
2023/04/26 01:08:19;;;;;;;;;;;;;;;;;;2230526;79;49794;-75
2023/04/26 01:11:19;;;;;;;;;;;;;;;19.14;57.84;100697.14;2222567;79;22367;-74
2023/04/26 01:14:22;;;;;;;;;;;;;;;19.13;57.82;100698.14;2222351;78;51553;-75
2023/04/26 01:17:24;;;;;;;;;;;;;;;19.13;57.75;100701.34;2224008;79;50652;-74
2023/04/26 01:20:26;;;;;;;;;;;;;;;19.10;57.73;100693.67;2222389;80;51609;-74
2023/04/26 01:23:27;;;;;;;;;;;;;;;19.11;57.74;100703.38;2225089;79;51405;-74
2023/04/26 01:26:29;;;;;;;;;;;;;;;19.14;57.67;100703.03;2227389;78;51498;-74
2023/04/26 01:29:31;;;;;;;;;;;;;;;19.12;57.76;100707.73;2202090;80;50045;-73
2023/04/26 01:32:32;;;;;;;;;;;;;;;19.12;57.63;100710.42;2222786;79;51207;-74
2023/04/26 01:35:34;;;;;;;;;;;;;;;19.10;57.63;100705.74;2209315;79;50639;-74
2023/04/26 01:38:36;;;;;;;;;;;;;;;19.11;57.64;100715.44;2222338;80;50269;-74
2023/04/26 01:41:37;;;;;;;;;;;;;;;19.10;57.60;100720.49;2234196;78;51604;-73
2023/04/26 01:44:39;;;;;;;;;;;;;;;19.09;57.56;100718.84;2228861;79;52128;-74
2023/04/26 01:47:40;;;;;;;;;;;;;;;19.10;57.56;100724.52;2218556;79;49897;-71
2023/04/26 01:50:42;;;;;;;;;;;;;;;19.09;57.55;100724.20;2202190;80;50347;-73
2023/04/26 01:53:44;;;;;;;;;;;;;;;19.08;57.55;100722.52;2219972;79;50390;-73
2023/04/26 01:56:45;;;;;;;;;;;;;;;19.07;57.57;100724.89;2202189;80;50604;-72
2023/04/26 01:59:47;;;;;;;;;;;;;;;19.08;57.60;100723.86;2202121;80;50676;-73
2023/04/26 02:02:48;;;;;;;;;;;;;;;19.09;57.53;100732.25;2227727;78;51432;-73
2023/04/26 02:05:50;;;;;;;;;;;;;;;19.10;57.41;100727.20;2246154;77;49798;-72
2023/04/26 02:08:52;;;;;;;;;;;;;;;19.09;57.50;100724.20;2202028;80;51646;-72
2023/04/26 02:11:53;;;;;;;;;;;;;;;19.08;57.45;100723.86;2219124;79;51491;-74
2023/04/26 02:14:55;;;;;;;;;;;;;;;19.08;57.41;100722.52;2241581;78;50279;-74
2023/04/26 02:17:57;;;;;;;;;;;;;;;19.08;57.57;100725.20;2235044;79;50673;-74
2023/04/26 02:20:58;;;;;;;;;;;;;;;19.06;57.48;100724.55;2226557;78;51048;-74
2023/04/26 02:24:00;;;;;;;;;;;;;;;19.05;57.54;100716.19;2256015;77;50275;-74
2023/04/26 02:27:02;;;;;;;;;;;;;;;19.06;57.54;100726.75;2222744;79;50309;-75
2023/04/26 02:30:04;;;;;;;;;;;;;;;19.05;57.52;100721.04;2227627;78;51465;-74
2023/04/26 02:33:07;;;;;;;;;;;;;;;19.04;57.42;100720.73;2230344;78;52503;-75
2023/04/26 02:36:09;;;;;;;;;;;;;;;19.03;57.30;100717.70;2259288;78;50677;-74
2023/04/26 02:39:10;;;;;;;;;;;;;;;19.04;57.33;100716.70;2216288;79;50429;-74
2023/04/26 02:42:12;;;;;;;;;;;;;;;19.04;57.26;100717.22;2214005;79;51528;-74
2023/04/26 02:45:14;;;;;;;;;;;;;;;19.03;57.30;100719.56;2161562;81;51166;-75
2023/04/26 02:48:15;;;;;;;;;;;;;;;19.03;57.35;100717.70;2251497;78;51446;-74
2023/04/26 02:51:17;;;;;;;;;;;;;;;19.02;57.34;100717.91;2245410;77;50291;-75
2023/04/26 02:54:19;;;;;;;;;;;;;;;19.04;57.27;100722.59;2229929;79;50424;-74
2023/04/26 02:57:20;;;;;;;;;;;;;;;19.01;57.35;100717.56;2209541;80;52363;-74
2023/04/26 03:00:23;;;;;;;;;;;;;;;18.98;57.32;100716.59;2209687;80;50300;-75
2023/04/26 03:03:24;;;;;;;;;;;;;;;19.00;57.30;100722.61;2219096;79;50708;-75
2023/04/26 03:06:27;;;;;;;;;;;;;;;19.01;57.31;100726.95;2260648;78;50222;-75
2023/04/26 03:09:29;;;;;;;;;;;;;;;19.02;57.24;100724.61;2257839;77;52357;-73
2023/04/26 03:12:30;;;;;;;;;;;;;;;19.02;57.19;100723.27;2254172;77;51443;-73
2023/04/26 03:15:32;;;;;;;;;;;;;;;18.99;57.27;100723.64;2240368;79;50226;-77
2023/04/26 03:18:33;;;;;;;;;;;;;;;18.99;57.16;100727.66;2222369;80;51459;-74
2023/04/26 03:21:35;;;;;;;;;;;;;;;19.00;57.21;100732.00;2179014;80;52741;-73
2023/04/26 03:24:37;;;;;;;;;;;;;;;18.99;57.19;100722.30;2254785;78;50688;-73
2023/04/26 03:27:38;;;;;;;;;;;;;;;18.99;57.29;100725.81;2238341;78;51486;-73
2023/04/26 03:30:40;;;;;;;;;;;;;;;18.97;57.16;100722.98;2223053;80;50698;-72
2023/04/26 03:33:42;;;;;;;;;;;;;;;18.96;57.10;100722.16;2207158;80;52621;-76
2023/04/26 03:36:43;;;;;;;;;;;;;;;18.96;57.10;100726.67;2205547;80;50761;-73
2023/04/26 03:39:45;;;;;;;;;;;;;;;18.97;57.15;100729.69;2203688;80;50677;-73
2023/04/26 03:42:46;;;;;;;;;;;;;;;18.96;57.05;100730.69;2201144;80;51572;-71
2023/04/26 03:45:48;;;;;;;;;;;;;;;18.95;57.09;100734.40;2179824;80;52463;-72
2023/04/26 03:48:50;;;;;;;;;;;;;;;18.94;56.93;100737.59;2211900;78;49968;-73
2023/04/26 03:51:52;;;;;;;;;;;;;;;18.95;57.00;100737.08;2253152;77;50772;-72
2023/04/26 03:54:53;;;;;;;;;;;;;;;18.95;56.98;100737.08;2234263;77;51518;-73
2023/04/26 03:57:55;;;;;;;;;;;;;;;18.95;57.04;100738.42;2220850;79;52360;-72
2023/04/26 04:01:02;;;;;;;;;;;;;;;18.95;56.98;100738.42;2213442;80;50719;-73
2023/04/26 04:04:00;;;;;;;;;;;;;;;18.92;57.01;100740.45;2256085;78;21796;-72
2023/04/26 04:07:02;;;;;;;;;;;;;;;18.95;56.95;100747.29;2230461;80;50845;-72
2023/04/26 04:10:03;;;;;;;;;;;;;;;18.94;56.95;100751.00;2209467;80;50902;-74
2023/04/26 04:13:05;;;;;;;;;;;;;;;18.95;56.96;100750.48;2209612;80;50626;-73
2023/04/26 04:16:09;;;;;;;;;;;;;;;18.95;56.93;100745.13;2209196;80;50268;-73
2023/04/26 04:19:10;;;;;;;;;;;;;;;18.91;56.94;100749.52;2230173;80;51465;-73
2023/04/26 04:22:12;;;;;;;;;;;;;;;18.92;56.88;100753.85;2209451;80;52455;-75
2023/04/26 04:25:13;;;;;;;;;;;;;;;18.91;56.80;100757.56;2209279;80;51531;-73
2023/04/26 04:28:15;;;;;;;;;;;;;;;18.91;56.86;100756.73;2211328;79;51474;-73
2023/04/26 04:31:17;;;;;;;;;;;;;;;18.91;56.91;100756.73;2230238;80;51546;-74
2023/04/26 04:34:19;;;;;;;;;;;;;;;18.91;56.85;100754.05;2233538;78;51376;-74
2023/04/26 04:37:21;;;;;;;;;;;;;;;18.90;56.81;100765.77;2248111;78;51491;-73
2023/04/26 04:40:23;;;;;;;;;;;;;;;18.90;56.73;100765.77;2209705;80;51627;-73
2023/04/26 04:43:26;;;;;;;;;;;;;;;18.89;56.68;100762.27;2230118;80;49797;-72
2023/04/26 04:46:28;;;;;;;;;;;;;;;18.90;56.82;100767.12;2186068;80;52709;-73
2023/04/26 04:49:30;;;;;;;;;;;;;;;18.88;56.79;100767.31;2230115;80;51516;-73
2023/04/26 04:52:32;;;;;;;;;;;;;;;18.89;56.89;100776.19;2230256;80;52170;-73
2023/04/26 04:55:33;;;;;;;;;;;;;;;18.87;56.88;100779.55;2209345;80;50622;-72
2023/04/26 04:58:36;;;;;;;;;;;;;;;18.90;56.95;100776.50;2209316;80;52569;-73
2023/04/26 05:01:37;;;;;;;;;;;;;;;18.93;56.98;100781.49;2209526;80;50293;-73
2023/04/26 05:04:39;;;;;;;;;;;;;;;18.93;57.09;100786.86;2256977;78;50380;-73
2023/04/26 05:07:40;;;;;;;;;;;;;;;18.92;58.30;100784.69;2227956;79;50727;-73
2023/04/26 05:10:42;;;;;;;;;;;;;;;18.92;58.70;100795.92;2230138;80;51532;-74
2023/04/26 05:13:43;;;;;;;;;;;;;;;18.94;59.13;100799.27;2214586;78;50719;-75
2023/04/26 05:16:45;;;;;;;;;;;;;;;18.95;58.47;100796.07;2267002;78;51461;-75
2023/04/26 05:19:47;;;;;;;;;;;;;;;18.96;58.63;100790.54;2245766;78;51470;-74
2023/04/26 05:22:48;;;;;;;;;;;;;;;18.97;58.86;100800.23;2244126;78;50091;-75
2023/04/26 05:25:50;;;;;;;;;;;;;;;19.01;58.68;100803.37;2216143;79;51429;-76
2023/04/26 05:28:51;;;;;;;;;;;;;;;19.01;58.70;100807.40;2230058;79;51439;-78
2023/04/26 05:31:53;;;;;;;;;;;;;;;19.07;58.59;100805.34;2253190;78;51485;-76
2023/04/26 05:34:55;;;;;;;;;;;;;;;19.12;58.80;100807.80;2216341;79;52436;-76
2023/04/26 05:37:56;;;;;;;;;;;;;;;19.17;58.89;100810.45;2209606;80;50380;-76
2023/04/26 05:40:58;;;;;;;;;;;;;;;19.18;58.94;100809.42;2230120;80;50220;-75
2023/04/26 05:44:00;;;;;;;;;;;;;;;19.24;58.76;100810.88;2242617;78;49856;-76
2023/04/26 05:47:01;;;;;;;;;;;;;;;19.26;58.82;100815.53;2210202;78;52447;-75
2023/04/26 05:50:03;;;;;;;;;;;;;;;19.28;58.77;100814.84;2241828;78;51497;-76
2023/04/26 05:53:04;;;;;;;;;;;;;;;19.31;58.68;100818.50;2243285;78;50620;-76
2023/04/26 05:56:06;;;;;;;;;;;;;;;19.33;58.63;100812.45;2264067;78;52562;-75
2023/04/26 05:59:08;;;;;;;;;;;;;;;19.37;58.50;100816.95;2232997;79;51498;-74
2023/04/26 06:02:10;;;;;;;;;;;;;;;19.41;58.47;100825.45;2224291;78;50318;-74
2023/04/26 06:05:12;;;;;;;;;;;;;;;19.45;58.38;100821.41;2239546;78;51687;-74
2023/04/26 06:08:13;;;;;;;;;;;;;;;19.49;58.25;100828.88;2245825;78;51447;-77
2023/04/26 06:11:15;;;;;;;;;;;;;;;19.54;58.19;100829.67;2244308;78;50792;-74
2023/04/26 06:14:17;;;;;;;;;;;;;;;19.63;57.99;100835.28;2242253;78;50365;-74
2023/04/26 06:17:18;;;;;;;;;;;;;;;19.74;57.71;100836.69;2264555;78;51613;-74
2023/04/26 06:20:20;;;;;;;;;;;;;;;19.79;57.59;100833.77;2247404;78;51667;-76
2023/04/26 06:23:21;;;;;;;;;;;;;;;19.86;57.57;100835.69;2221703;79;51403;-76
2023/04/26 06:26:23;;;;;;;;;;;;;;;19.88;57.35;100828.30;2187418;80;52636;-76
2023/04/26 06:29:25;;;;;;;;;;;;;;;19.93;57.30;100838.78;2237964;78;50421;-74
2023/04/26 06:32:26;;;;;;;;;;;;;;;20.01;57.32;100831.13;2205118;78;50602;-74
2023/04/26 06:35:28;;;;;;;;;;;;;;;20.04;57.50;100841.53;2230167;78;50643;-74
2023/04/26 06:38:29;;;;;;;;;;;;;;;20.08;57.39;100842.80;2245411;78;51196;-74
2023/04/26 06:41:31;;;;;;;;;;;;;;;20.11;57.42;100843.77;2244641;78;50440;-75
2023/04/26 06:44:33;;;;;;;;;;;;;;;20.10;57.72;100847.48;2231091;78;50623;-75
2023/04/26 06:47:34;;;;;;;;;;;;;;;20.12;57.80;100843.28;2225464;78;50473;-75
2023/04/26 06:50:39;;;;;;;;;;;;;;;20.06;57.93;100839.46;2221194;79;51336;-74
2023/04/26 06:53:41;;;;;;;;;;;;;;;20.06;58.00;100844.84;2250432;78;51446;-75
2023/04/26 06:56:42;;;;;;;;;;;;;;;20.06;57.93;100840.80;2235352;78;52557;-72
2023/04/26 06:59:44;;;;;;;;;;;;;;;20.11;57.85;100846.97;2232365;79;51460;-74
2023/04/26 07:02:45;;;;;;;;;;;;;;;20.18;57.70;100846.02;2222322;78;51670;-78
2023/04/26 07:05:47;;;;;;;;;;;;;;;20.19;57.81;100849.05;2245594;78;49961;-75
2023/04/26 07:08:49;;;;;;;;;;;;;;;20.18;57.72;100845.20;2231569;78;51646;-75
2023/04/26 07:11:50;;;;;;;;;;;;;;;20.14;57.97;100851.95;2234694;78;51534;-78
2023/04/26 07:14:52;;;;;;;;;;;;;;;20.15;57.72;100855.81;2230176;80;51585;-77
2023/04/26 07:17:53;;;;;;;;;;;;;;;20.18;57.96;100854.08;2232806;78;50705;-76
2023/04/26 07:20:55;;;;;;;;;;;;;;;20.18;57.84;100854.59;2232753;78;50060;-77
2023/04/26 07:23:56;;;;;;;;;;;;;;;20.12;57.78;100855.36;2226464;79;50357;-74
2023/04/26 07:26:58;;;;;;;;;;;;;;;20.12;57.68;100856.70;2256095;78;51132;-75
2023/04/26 07:30:00;;;;;;;;;;;;;;;20.13;57.60;100859.70;2240271;79;50405;-75
2023/04/26 07:33:01;;;;;;;;;;;;;;;20.13;57.60;100859.19;2238047;78;50261;-74
2023/04/26 07:36:04;;;;;;;;;;;;;;;20.16;57.59;100853.43;2229109;78;50260;-77
2023/04/26 07:39:07;;;;;;;;;;;;;;;20.19;57.51;100857.11;2203606;78;51659;-76
2023/04/26 07:42:09;;;;;;;;;;;;;;;20.13;57.24;100855.67;2244481;79;22817;-75
2023/04/26 07:45:11;;;;;;;;;;;;;;;20.08;56.95;100866.16;2256515;78;50515;-74
2023/04/26 07:48:12;;;;;;;;;;;;;;;20.05;56.60;100859.81;2256704;78;50381;-74
2023/04/26 07:51:14;;;;;;;;;;;;;;;20.04;56.13;100863.02;2204561;79;51115;-75
2023/04/26 07:54:15;;;;;;;;;;;;;;;19.98;55.76;100864.58;2247265;78;51512;-76
2023/04/26 07:57:17;;;;;;;;;;;;;;;19.98;55.17;100868.60;2277782;77;50346;-74
2023/04/26 08:00:21;;;;;;;;;;;;;;;19.93;55.23;100870.19;2215562;78;50255;-75
2023/04/26 08:03:22;;;;;;;;;;;;;;;19.87;55.17;100870.43;2222835;79;23021;-76
2023/04/26 08:06:23;;;;;;;;;;;;;;;19.89;55.17;100865.71;2232510;79;51620;-74
2023/04/26 08:09:25;;;;;;;;;;;;;;;19.87;55.41;100879.00;2257109;78;51484;-75
2023/04/26 08:12:27;;;;;;;;;;;;;;;19.79;55.52;100874.05;2197882;78;51430;-74
2023/04/26 08:15:28;;;;;;;;;;;;;;;19.77;55.62;100876.59;2161509;80;52571;-75
2023/04/26 08:18:30;;;;;;;;;;;;;;;19.74;55.58;100871.08;2185771;78;51477;-75
2023/04/26 08:21:32;;;;;;;;;;;;;;;19.74;55.83;100872.94;2215632;79;50645;-75
2023/04/26 08:24:33;;;;;;;;;;;;;;;19.66;56.07;100880.54;2289524;77;51431;-75
2023/04/26 08:27:35;;;;;;;;;;;;;;;19.64;56.24;100876.38;2255585;77;51669;-74
2023/04/26 08:30:37;;;;;;;;;;;;;;;19.66;56.22;100881.05;2220473;79;50126;-74
2023/04/26 08:33:39;;;;;;;;;;;;;;;19.66;56.22;100883.23;2232719;78;50654;-74
2023/04/26 08:36:41;;;;;;;;;;;;;;;19.67;56.22;100883.57;2261435;78;49996;-75
2023/04/26 08:39:42;;;;;;;;;;;;;;;19.66;56.20;100880.54;2240730;78;52419;-74
2023/04/26 08:42:44;;;;;;;;;;;;;;;19.66;56.17;100891.28;2226044;78;50128;-74
2023/04/26 08:45:46;;;;;;;;;;;;;;;19.64;56.24;100881.74;2191225;80;50404;-74
2023/04/26 08:48:49;;;;;;;;;;;;;;;19.60;56.28;100898.73;2240451;78;51481;-74
2023/04/26 08:51:51;;;;;;;;;;;;;;;19.57;56.34;100885.66;2243049;78;50384;-74
2023/04/26 08:54:52;;;;;;;;;;;;;;;19.56;56.34;100892.88;2214347;78;51532;-74
2023/04/26 08:57:54;;;;;;;;;;;;;;;19.51;56.47;100897.14;2230869;78;51489;-74
2023/04/26 09:00:56;;;;;;;;;;;;;;;19.51;56.46;100893.11;2230664;80;50721;-74
2023/04/26 09:03:58;;;;;;;;;;;;;;;19.54;56.39;100898.11;2211209;79;51849;-75
2023/04/26 09:07:03;;;;;;;;;;;;;;;19.53;56.39;100889.23;2230639;79;51661;-75
2023/04/26 09:10:05;;;;;;;;;;;;;;;19.54;56.43;100889.55;2231057;78;51505;-76
2023/04/26 09:13:06;;;;;;;;;;;;;;;19.56;56.35;100891.55;2233025;79;50658;-73
2023/04/26 09:16:08;;;;;;;;;;;;;;;19.55;56.41;100895.25;2236507;78;52000;-75
2023/04/26 09:19:10;;;;;;;;;;;;;;;19.51;56.44;100893.11;2210928;78;50264;-74
2023/04/26 09:22:11;;;;;;;;;;;;;;;19.50;56.38;100884.75;2229056;78;50560;-74
2023/04/26 09:25:13;;;;;;;;;;;;;;;19.48;56.35;100884.92;2232637;79;51453;-74
2023/04/26 09:28:19;;;;;;;;;;;;;;;19.48;56.40;100889.46;2213415;79;50887;-74
2023/04/26 09:31:37;;;;;;;;;;;;;;;19.50;56.36;100880.21;2234005;79;50696;-75
2023/04/26 09:34:48;;;;;;;;;;;;;;;19.49;56.35;100890.60;2214539;78;50309;-74
2023/04/26 09:37:57;;;;;;;;;;;;;;;19.49;56.33;100887.09;2230681;80;51443;-75
2023/04/26 09:41:01;;;;;;;;;;;;;;;19.47;56.31;100891.31;2213693;78;52430;-74
2023/04/26 09:44:02;;;;;;;;;;;;;;;19.46;56.37;100896.34;2265129;78;50454;-74
2023/04/26 09:47:12;;;;;;;;;;;;;;;19.45;56.40;100897.38;2264937;78;50737;-74
2023/04/26 09:50:11;;;;;;;;;;;;;;;19.43;56.40;100897.23;2249430;78;22501;-74
2023/04/26 09:53:33;;;;;;;;;;;;;;;19.45;56.37;100888.48;2243821;78;50275;-75
2023/04/26 09:56:35;;;;;;;;;;;;;;;19.46;56.37;100895.52;2233474;78;24248;-75
2023/04/26 09:59:40;;;;;;;;;;;;;;;19.45;56.28;100890.66;2251469;78;49870;-75
2023/04/26 10:02:41;;;;;;;;;;;;;;;19.46;56.25;100882.92;2241136;79;50339;-76
2023/04/26 10:05:43;;;;;;;;;;;;;;;19.45;56.37;100884.47;2268996;77;50249;-73
2023/04/26 10:08:45;;;;;;;;;;;;;;;19.43;56.35;100885.16;2240962;78;50643;-75
2023/04/26 10:11:46;;;;;;;;;;;;;;;19.41;56.43;100889.34;2259716;78;51391;-75
2023/04/26 10:14:48;;;;;;;;;;;;;;;19.38;56.46;100888.37;2256184;78;51447;-75
2023/04/26 10:17:49;;;;;;;;;;;;;;;19.38;56.46;100891.58;2257276;78;51596;-75
2023/04/26 10:20:51;;;;;;;;;;;;;;;19.40;56.49;100889.55;2237803;78;53528;-75
2023/04/26 10:23:53;;;;;;;;;;;;;;;19.39;56.48;100893.23;2250474;78;49975;-74
2023/04/26 10:27:01;;;;;;;;;;;;;;;19.37;56.44;100886.72;2251954;79;51431;-75
2023/04/26 10:30:00;;;;;;;;;;;;;;;19.39;56.50;100883.84;2253031;78;23145;-75
2023/04/26 10:33:03;;;;;;;;;;;;;;;19.40;56.47;100885.52;2252241;78;51610;-75
2023/04/26 10:36:11;;;;;;;;;;;;;;;19.39;56.53;100886.52;2249531;78;51457;-75
2023/04/26 10:39:24;;;;;;;;;;;;;;;19.35;56.55;100892.25;2230794;80;51556;-75
2023/04/26 10:42:26;;;;;;;;;;;;;;;19.33;56.62;100886.23;2264314;78;51705;-75
2023/04/26 10:45:28;;;;;;;;;;;;;;;19.30;56.63;100883.92;2249693;78;50471;-75
2023/04/26 10:48:32;;;;;;;;;;;;;;;19.29;56.66;100898.36;2261315;78;51517;-74
2023/04/26 10:51:34;;;;;;;;;;;;;;;19.27;56.70;100888.31;2237157;78;50397;-74
2023/04/26 10:54:46;;;;;;;;;;;;;;;19.24;56.71;100892.70;2213633;78;52520;-74
2023/04/26 10:57:52;;;;;;;;;;;;;;;19.25;56.75;100894.87;2259451;78;51636;-75
2023/04/26 11:01:12;;;;;;;;;;;;;;;19.26;56.72;100899.22;2245538;78;50464;-76
2023/04/26 11:04:15;;;;;;;;;;;;;;;19.26;56.68;100892.50;2230390;80;50268;-74
2023/04/26 11:07:16;;;;;;;;;;;;;;;19.24;56.66;100899.41;2216499;78;52757;-74
2023/04/26 11:10:20;;;;;;;;;;;;;;;19.25;56.68;100902.41;2264988;78;52103;-75
2023/04/26 11:13:21;;;;;;;;;;;;;;;19.25;56.68;100902.92;2260304;78;51339;-74
2023/04/26 11:16:25;;;;;;;;;;;;;;;19.24;56.65;100892.70;2264959;78;50269;-74
2023/04/26 11:19:26;;;;;;;;;;;;;;;19.24;56.69;100904.78;2246807;78;22458;-74
2023/04/26 11:22:28;;;;;;;;;;;;;;;19.23;56.68;100903.61;2226603;79;50627;-74
2023/04/26 11:25:30;;;;;;;;;;;;;;;19.22;56.73;100904.63;2230604;80;50688;-74
2023/04/26 11:28:32;;;;;;;;;;;;;;;19.22;56.69;100905.46;2237187;78;50406;-74
2023/04/26 11:31:33;;;;;;;;;;;;;;;19.23;56.67;100899.07;2265431;78;52686;-75
2023/04/26 11:34:36;;;;;;;;;;;;;;;19.23;56.65;100901.75;2260624;78;50259;-76
2023/04/26 11:37:38;;;;;;;;;;;;;;;19.24;56.62;100899.41;2261341;78;50883;-76
2023/04/26 11:40:40;;;;;;;;;;;;;;;19.26;56.57;100901.89;2259132;78;50300;-75
2023/04/26 11:43:42;;;;;;;;;;;;;;;19.25;56.60;100906.95;2264520;78;51200;-74
2023/04/26 11:46:43;;;;;;;;;;;;;;;19.26;56.59;100908.09;2247812;78;51498;-75
2023/04/26 11:49:45;;;;;;;;;;;;;;;19.25;56.60;100899.73;2239489;78;51577;-76
2023/04/26 11:52:46;;;;;;;;;;;;;;;19.23;56.62;100903.61;2242101;78;50399;-75
2023/04/26 11:55:48;;;;;;;;;;;;;;;19.23;56.65;100908.45;2209259;80;51139;-75
2023/04/26 11:58:51;;;;;;;;;;;;;;;19.19;56.67;100912.53;2209451;80;51543;-75
2023/04/26 12:01:52;;;;;;;;;;;;;;;19.18;56.66;100914.87;2230505;78;50717;-74
2023/04/26 12:04:55;;;;;;;;;;;;;;;19.16;56.68;100912.87;2229738;80;51496;-75
2023/04/26 12:07:58;;;;;;;;;;;;;;;19.18;56.68;100923.43;2211347;78;51233;-75
2023/04/26 12:11:01;;;;;;;;;;;;;;;19.15;56.63;100913.89;2260575;78;51556;-76
2023/04/26 12:14:02;;;;;;;;;;;;;;;19.16;56.67;100918.23;2266927;78;50467;-76
2023/04/26 12:17:05;;;;;;;;;;;;;;;19.18;56.63;100913.53;2250142;78;51316;-76
2023/04/26 12:20:10;;;;;;;;;;;;;;;19.18;56.65;100926.12;2215636;78;52459;-75
2023/04/26 12:23:15;;;;;;;;;;;;;;;19.17;56.66;100921.78;2225963;78;53573;-76
2023/04/26 12:26:19;;;;;;;;;;;;;;;19.18;56.61;100920.75;2234832;78;51479;-76
2023/04/26 12:29:20;;;;;;;;;;;;;;;19.17;56.64;100934.67;2260884;78;50357;-76
2023/04/26 12:32:22;;;;;;;;;;;;;;;19.18;56.53;100918.89;2231980;78;51182;-75
2023/04/26 12:35:24;;;;;;;;;;;;;;;19.14;56.57;100925.66;2232070;79;50392;-75
2023/04/26 12:38:26;;;;;;;;;;;;;;;19.14;56.59;100928.34;2233027;79;50653;-75
2023/04/26 12:41:27;;;;;;;;;;;;;;;19.13;56.64;100927.98;2209505;80;50286;-75
2023/04/26 12:44:29;;;;;;;;;;;;;;;19.11;56.69;100925.98;2188311;79;51775;-76
2023/04/26 12:47:30;;;;;;;;;;;;;;;19.10;56.67;100927.02;2242386;78;50508;-75
2023/04/26 12:50:32;;;;;;;;;;;;;;;19.09;56.71;100928.04;2246929;78;50602;-75
2023/04/26 12:53:33;;;;;;;;;;;;;;;19.08;56.69;100928.52;2209510;78;50637;-75
2023/04/26 12:56:39;;;;;;;;;;;;;;;19.09;56.68;100928.04;2209182;80;52546;-75
2023/04/26 12:59:38;;;;;;;;;;;;;;;19.10;56.70;100928.36;2230143;79;22267;-75
2023/04/26 13:02:40;;;;;;;;;;;;;;;19.11;56.60;100922.83;2235401;78;50107;-75
2023/04/26 13:05:42;;;;;;;;;;;;;;;19.12;56.55;100916.44;2239479;78;51427;-76
2023/04/26 13:08:43;;;;;;;;;;;;;;;19.18;56.43;100918.06;2245846;78;49510;-76
2023/04/26 13:11:45;;;;;;;;;;;;;;;19.18;56.34;100916.21;2244631;78;50081;-76
2023/04/26 13:14:47;;;;;;;;;;;;;;;19.14;56.33;100909.56;2251020;78;51637;-76
2023/04/26 13:17:49;;;;;;;;;;;;;;;19.15;56.38;100919.27;2257815;78;50775;-75
2023/04/26 13:20:50;;;;;;;;;;;;;;;19.18;56.31;100920.75;2220352;78;51292;-76
2023/04/26 13:23:52;;;;;;;;;;;;;;;19.21;56.16;100918.53;2204276;80;51503;-76
2023/04/26 13:26:54;;;;;;;;;;;;;;;19.17;56.18;100910.53;2238278;78;50060;-76
2023/04/26 13:29:55;;;;;;;;;;;;;;;19.19;56.24;100911.19;2223990;79;51610;-75
2023/04/26 13:32:57;;;;;;;;;;;;;;;19.17;56.35;100910.53;2212539;79;50955;-75
2023/04/26 13:35:59;;;;;;;;;;;;;;;19.15;56.55;100917.41;2246044;78;51489;-73
2023/04/26 13:39:00;;;;;;;;;;;;;;;19.11;56.66;100912.58;2239451;78;51386;-76
2023/04/26 13:42:02;;;;;;;;;;;;;;;19.09;56.71;100907.92;2230018;80;51668;-75
2023/04/26 13:45:09;;;;;;;;;;;;;;;19.10;56.71;100916.28;2211761;78;51729;-75
2023/04/26 13:48:07;;;;;;;;;;;;;;;19.11;56.62;100919.28;2261977;78;22360;-75
2023/04/26 13:51:10;;;;;;;;;;;;;;;19.08;56.63;100921.81;2234950;78;51434;-76
2023/04/26 13:54:11;;;;;;;;;;;;;;;19.08;56.62;100912.43;2249862;78;49995;-75
2023/04/26 13:57:13;;;;;;;;;;;;;;;19.07;56.60;100927.38;2264430;78;51749;-76
2023/04/26 14:00:15;;;;;;;;;;;;;;;19.05;56.53;100924.86;2260643;78;50266;-75
2023/04/26 14:03:17;;;;;;;;;;;;;;;19.05;56.52;100929.40;2262416;78;50396;-75
2023/04/26 14:06:18;;;;;;;;;;;;;;;19.05;56.46;100932.08;2236568;78;50077;-75
2023/04/26 14:09:20;;;;;;;;;;;;;;;19.04;56.37;100939.30;2221132;79;51136;-74
2023/04/26 14:12:21;;;;;;;;;;;;;;;19.06;56.37;100929.23;2240522;79;50653;-75
2023/04/26 14:15:23;;;;;;;;;;;;;;;19.05;56.38;100932.08;2227638;78;50396;-75
2023/04/26 14:18:25;;;;;;;;;;;;;;;19.04;56.35;100939.30;2258887;78;50650;-75
2023/04/26 14:21:26;;;;;;;;;;;;;;;19.04;56.42;100939.81;2246637;78;51485;-75
2023/04/26 14:24:28;;;;;;;;;;;;;;;19.02;56.37;100943.17;2235384;78;51618;-73
2023/04/26 14:27:30;;;;;;;;;;;;;;;19.00;56.33;100942.00;2256378;77;50258;-75
2023/04/26 14:30:31;;;;;;;;;;;;;;;19.02;56.34;100945.86;2232817;79;50258;-76
2023/04/26 14:33:33;;;;;;;;;;;;;;;19.03;56.28;100936.27;2186271;80;49441;-75
2023/04/26 14:36:35;;;;;;;;;;;;;;;19.07;56.21;100940.27;2244728;78;51547;-75
2023/04/26 14:39:37;;;;;;;;;;;;;;;19.06;56.26;100943.13;2245841;78;50779;-76
2023/04/26 14:42:44;;;;;;;;;;;;;;;19.06;56.39;100935.94;2243109;78;51471;-76
2023/04/26 14:45:42;;;;;;;;;;;;;;;19.05;56.43;100935.59;2266189;78;23134;-75
2023/04/26 14:48:44;;;;;;;;;;;;;;;19.05;56.50;100926.72;2214023;78;50809;-74
2023/04/26 14:51:45;;;;;;;;;;;;;;;19.06;56.52;100936.42;2253192;78;50373;-75
2023/04/26 14:54:47;;;;;;;;;;;;;;;19.03;56.55;100933.59;2288690;77;50391;-74
2023/04/26 14:57:49;;;;;;;;;;;;;;;19.02;56.59;100939.15;2289264;77;50239;-75
2023/04/26 15:00:51;;;;;;;;;;;;;;;19.01;56.63;100938.80;2239145;78;51513;-74
2023/04/26 15:03:52;;;;;;;;;;;;;;;19.03;56.54;100946.17;2229972;78;50761;-75
2023/04/26 15:06:55;;;;;;;;;;;;;;;19.02;56.56;100947.19;2229834;80;50463;-75
2023/04/26 15:09:57;;;;;;;;;;;;;;;19.00;56.48;100946.02;2209520;80;52608;-77
2023/04/26 15:12:58;;;;;;;;;;;;;;;19.00;56.48;100947.88;2232738;79;51344;-75
2023/04/26 15:16:06;;;;;;;;;;;;;;;19.03;56.39;100939.47;2209157;80;51607;-74
2023/04/26 15:19:08;;;;;;;;;;;;;;;19.03;56.31;100940.80;2241483;78;51565;-76
2023/04/26 15:22:09;;;;;;;;;;;;;;;19.00;56.42;100941.17;2203648;78;51191;-75
2023/04/26 15:25:11;;;;;;;;;;;;;;;19.00;56.52;100937.14;2245639;78;50076;-75
2023/04/26 15:28:13;;;;;;;;;;;;;;;19.00;56.51;100935.30;2266837;78;51554;-76
2023/04/26 15:31:15;;;;;;;;;;;;;;;19.03;56.50;100938.13;2245911;78;51498;-76
2023/04/26 15:34:17;;;;;;;;;;;;;;;19.03;56.41;100938.95;2232809;78;51034;-76
2023/04/26 15:37:19;;;;;;;;;;;;;;;19.03;56.41;100931.42;2259421;78;50815;-75